Time;durP1;ratioP1;P1;durP2;ratioP2;P2;SDS_P1;SDS_P2;PMS_P1;PMS_P2;Temp;Humidity;BMP_temperature;BMP_pressure;BME280_temperature;BME280_humidity;BME280_pressure;Samples;Min_cycle;Max_cycle;Signal;HPM_P1;HPM_P2
2022/10/05 00:09:00;;;;;;;3.78;1.90;;;16.90;99.90;;;;;;5160069;23;20289;-62
2022/10/05 00:11:25;;;;;;;5.55;1.85;;;16.80;99.90;;;;;;4855043;29;20193;-62
2022/10/05 00:32:18;;;;;;;3.42;1.80;;;16.80;99.90;;;;;;4939723;23;20603;-61
2022/10/05 00:43:10;;;;;;;3.65;1.80;;;16.80;99.90;;;;;;5178379;23;20238;-62
2022/10/05 00:45:45;;;;;;;4.85;1.83;;;16.70;99.90;;;;;;4871187;29;20220;-62
2022/10/05 00:48:27;;;;;;;2.80;1.50;;;16.80;99.90;;;;;;4890093;29;20207;-61
2022/10/05 00:51:25;;;;;;;2.10;1.52;;;16.80;99.90;;;;;;4848435;29;20606;-62
2022/10/05 00:54:07;;;;;;;4.32;1.85;;;16.70;99.90;;;;;;4879888;29;20622;-61
2022/10/05 00:56:46;;;;;;;3.78;1.80;;;16.70;99.90;;;;;;4894518;29;20724;-62
2022/10/05 00:59:29;;;;;;;4.40;1.70;;;16.70;99.90;;;;;;4895220;29;20183;-62
2022/10/05 01:02:16;;;;;;;7.38;1.90;;;16.70;99.90;;;;;;4879673;29;20197;-62
2022/10/05 01:04:58;;;;;;;4.07;1.52;;;16.70;99.90;;;;;;4879331;29;20189;-62
2022/10/05 01:08:03;;;;;;;5.20;1.67;;;16.80;99.90;;;;;;4880387;29;20248;-61
2022/10/05 01:10:43;;;;;;;4.00;1.67;;;16.80;99.90;;;;;;4880355;29;20244;-62
2022/10/05 01:13:43;;;;;;;3.00;1.70;;;16.70;99.90;;;;;;4898339;29;20172;-61
2022/10/05 01:16:22;;;;;;;3.22;1.65;;;16.70;99.90;;;;;;4897587;29;20651;-62
2022/10/05 01:19:09;;;;;;;5.20;1.60;;;16.70;99.90;;;;;;4901079;29;20657;-62
2022/10/05 01:21:46;;;;;;;4.60;1.80;;;16.70;99.90;;;;;;4901084;29;20289;-62
2022/10/05 01:24:51;;;;;;;5.80;1.73;;;16.70;99.90;;;;;;4900882;29;20172;-62
2022/10/05 01:27:40;;;;;;;2.25;1.40;;;16.70;99.90;;;;;;4884519;29;20200;-61
2022/10/05 01:30:19;;;;;;;4.70;1.90;;;16.70;99.90;;;;;;4898199;29;20279;-62
2022/10/05 01:33:22;;;;;;;4.55;1.80;;;16.70;99.90;;;;;;4884848;29;20190;-61
2022/10/05 01:36:01;;;;;;;1.77;1.35;;;16.70;99.90;;;;;;4899762;29;20642;-61
2022/10/05 01:38:41;;;;;;;4.05;1.80;;;16.70;99.90;;;;;;4896086;29;20235;-62
2022/10/05 01:41:25;;;;;;;2.72;1.70;;;16.70;99.90;;;;;;4894737;29;20775;-61
2022/10/05 01:44:00;;;;;;;4.68;1.63;;;16.60;99.90;;;;;;4898280;29;20231;-61
2022/10/05 01:46:58;;;;;;;5.53;1.60;;;16.70;99.90;;;;;;4895955;29;20202;-61
2022/10/05 01:49:51;;;;;;;7.32;1.55;;;16.70;99.90;;;;;;4900478;29;20177;-62
2022/10/05 01:52:29;;;;;;;3.65;1.60;;;16.60;99.90;;;;;;4898933;29;20544;-62
2022/10/05 01:55:17;;;;;;;4.50;1.50;;;16.60;99.90;;;;;;4898434;29;20227;-62
2022/10/05 01:58:06;;;;;;;3.45;1.48;;;16.70;99.90;;;;;;4894476;29;20216;-62
2022/10/05 02:00:54;;;;;;;3.92;1.60;;;16.70;99.90;;;;;;4898829;29;20185;-62
2022/10/05 02:03:26;;;;;;;4.18;1.50;;;16.70;99.90;;;;;;4901287;29;20216;-62
2022/10/05 02:05:58;;;;;;;3.28;1.73;;;16.60;99.90;;;;;;4898794;29;20193;-62
2022/10/05 02:08:29;;;;;;;5.38;1.65;;;16.70;99.90;;;;;;4895702;29;20371;-61
2022/10/05 02:11:01;;;;;;;3.85;1.50;;;16.60;99.90;;;;;;4898796;29;20235;-62
2022/10/05 02:13:40;;;;;;;5.80;1.50;;;16.60;99.90;;;;;;4899465;29;20625;-62
2022/10/05 02:16:20;;;;;;;3.30;1.50;;;16.60;99.90;;;;;;4898059;29;20169;-62
2022/10/05 02:18:52;;;;;;;3.25;1.20;;;16.60;99.90;;;;;;4894748;29;20232;-61
2022/10/05 02:21:20;;;;;;;3.33;1.50;;;16.60;99.90;;;;;;4899209;29;20682;-62
2022/10/05 02:23:49;;;;;;;4.38;1.10;;;16.60;99.90;;;;;;4899788;29;20292;-62
2022/10/05 02:26:16;;;;;;;2.42;1.40;;;16.60;99.90;;;;;;4898563;29;20184;-62
2022/10/05 02:28:55;;;;;;;7.53;1.30;;;16.60;99.90;;;;;;4895174;29;20196;-62
2022/10/05 02:31:45;;;;;;;4.78;1.30;;;16.60;99.90;;;;;;4898832;29;20177;-62
2022/10/05 02:34:24;;;;;;;3.65;1.45;;;16.60;99.90;;;;;;4898532;29;20681;-61
2022/10/05 02:37:11;;;;;;;6.15;1.48;;;16.60;99.90;;;;;;4894425;29;20217;-62
2022/10/05 02:39:47;;;;;;;1.88;1.27;;;16.50;99.90;;;;;;4897900;29;21973;-62
2022/10/05 02:42:51;;;;;;;2.80;1.60;;;16.60;99.90;;;;;;4867770;29;20181;-61
2022/10/05 02:45:29;;;;;;;5.47;1.35;;;16.50;99.90;;;;;;4879284;29;20642;-61
2022/10/05 02:48:27;;;;;;;5.45;1.75;;;16.50;99.90;;;;;;4894549;29;20184;-61
2022/10/05 02:51:11;;;;;;;4.93;1.83;;;16.50;99.90;;;;;;4891564;29;20211;-61
2022/10/05 02:53:37;;;;;;;4.63;1.63;;;16.50;99.90;;;;;;4898136;29;20240;-61
2022/10/05 02:56:06;;;;;;;7.28;1.70;;;16.50;99.90;;;;;;4899295;29;20287;-61
2022/10/05 02:58:42;;;;;;;3.78;1.42;;;16.50;99.90;;;;;;4892769;29;20193;-61
2022/10/05 03:01:26;;;;;;;2.70;1.40;;;16.50;99.90;;;;;;4908542;29;20188;-61
2022/10/05 03:04:26;;;;;;;4.30;1.52;;;16.50;99.90;;;;;;4884101;29;20180;-62
2022/10/05 03:06:56;;;;;;;3.00;1.40;;;16.50;99.90;;;;;;4898219;29;20196;-62
2022/10/05 03:09:27;;;;;;;6.47;1.80;;;16.50;99.90;;;;;;4899128;29;20328;-62
2022/10/05 03:12:44;;;;;;;8.13;1.80;;;16.50;99.90;;;;;;4894973;29;20645;-62
2022/10/05 03:15:22;;;;;;;5.95;1.90;;;16.50;99.90;;;;;;4887648;29;20676;-61
2022/10/05 03:18:14;;;;;;;3.78;1.88;;;16.50;99.90;;;;;;4896694;29;20208;-62
2022/10/05 03:20:56;;;;;;;5.13;2.03;;;16.50;99.90;;;;;;4879366;29;20189;-61
2022/10/05 03:23:28;;;;;;;4.82;1.88;;;16.50;99.90;;;;;;4895871;29;20188;-61
2022/10/05 03:26:05;;;;;;;5.45;1.90;;;16.50;99.90;;;;;;4897947;29;20244;-62
2022/10/05 03:28:57;;;;;;;4.65;1.70;;;16.50;99.90;;;;;;4897098;29;20657;-62
2022/10/05 03:31:42;;;;;;;3.22;1.95;;;16.50;99.90;;;;;;4896840;29;20230;-63
2022/10/05 03:34:32;;;;;;;4.38;1.98;;;16.50;99.90;;;;;;4896521;29;20189;-62
2022/10/05 03:36:57;;;;;;;4.95;2.20;;;16.40;99.90;;;;;;4893772;29;20251;-61
2022/10/05 03:39:37;;;;;;;4.78;2.28;;;16.40;99.90;;;;;;4898089;29;20625;-61
2022/10/05 03:42:28;;;;;;;2.83;1.98;;;16.40;99.90;;;;;;4891935;29;20233;-62
2022/10/05 03:45:08;;;;;;;4.05;2.38;;;16.40;99.90;;;;;;4895932;29;20244;-61
2022/10/05 03:47:53;;;;;;;5.00;2.17;;;16.40;99.90;;;;;;4894188;29;20216;-62
2022/10/05 03:50:28;;;;;;;4.90;2.13;;;16.40;99.90;;;;;;4896056;29;20259;-62
2022/10/05 03:53:18;;;;;;;4.82;2.30;;;16.40;99.90;;;;;;4897208;29;20189;-61
2022/10/05 03:56:03;;;;;;;3.63;2.15;;;16.40;99.90;;;;;;4897225;29;20187;-61
2022/10/05 03:59:17;;;;;;;4.65;2.33;;;16.40;99.90;;;;;;4897247;29;20211;-61
2022/10/05 04:02:06;;;;;;;3.63;2.20;;;16.40;99.90;;;;;;4802167;29;20648;-61
2022/10/05 04:04:39;;;;;;;4.70;2.17;;;16.30;99.90;;;;;;4807278;29;20184;-61
2022/10/05 04:07:18;;;;;;;1.95;1.70;;;16.40;99.90;;;;;;4874471;29;20207;-61
2022/10/05 04:09:48;;;;;;;6.15;2.30;;;16.40;99.90;;;;;;4881141;29;20192;-61
2022/10/05 04:12:17;;;;;;;3.80;2.50;;;16.30;99.90;;;;;;4891655;29;20389;-62
2022/10/05 04:14:48;;;;;;;6.30;2.22;;;16.30;99.90;;;;;;4894762;29;20236;-61
2022/10/05 04:17:21;;;;;;;5.88;2.45;;;16.40;99.90;;;;;;4894193;29;20219;-61
2022/10/05 04:20:26;;;;;;;3.55;2.42;;;16.40;99.90;;;;;;4898327;29;20677;-61
2022/10/05 04:23:14;;;;;;;3.95;2.50;;;16.30;99.90;;;;;;4836102;29;20197;-61
2022/10/05 04:25:51;;;;;;;5.68;2.92;;;16.30;99.90;;;;;;4819718;29;20306;-61
2022/10/05 04:28:49;;;;;;;4.35;2.80;;;16.30;99.90;;;;;;4875593;29;20196;-61
2022/10/05 04:31:42;;;;;;;6.70;2.90;;;16.30;99.90;;;;;;4882245;29;20205;-62
2022/10/05 04:34:42;;;;;;;4.50;3.05;;;16.30;99.90;;;;;;4908759;29;20207;-61
2022/10/05 04:37:18;;;;;;;6.15;2.40;;;16.30;99.90;;;;;;4879669;29;20309;-62
2022/10/05 04:39:52;;;;;;;4.55;2.45;;;16.30;99.90;;;;;;4897022;29;20176;-61
2022/10/05 04:42:43;;;;;;;6.20;2.72;;;16.20;99.90;;;;;;4888197;29;20297;-62
2022/10/05 04:45:18;;;;;;;4.28;2.70;;;16.20;99.90;;;;;;4896004;29;20189;-61
2022/10/05 04:48:34;;;;;;;6.00;2.80;;;16.30;99.90;;;;;;4895585;29;20193;-62
2022/10/05 04:51:07;;;;;;;4.65;3.00;;;16.20;99.90;;;;;;4844186;29;20229;-62
2022/10/05 04:53:55;;;;;;;5.60;2.88;;;16.30;99.90;;;;;;4900450;29;20188;-62
2022/10/05 04:56:37;;;;;;;9.68;3.20;;;16.20;99.90;;;;;;4899357;29;20187;-62
2022/10/05 04:59:29;;;;;;;4.95;3.03;;;16.20;99.90;;;;;;4894800;29;20189;-62
2022/10/05 05:02:14;;;;;;;6.70;3.08;;;16.20;99.90;;;;;;4891305;29;20187;-62
2022/10/05 05:04:47;;;;;;;6.65;2.83;;;16.20;99.90;;;;;;4898791;29;20272;-64
2022/10/05 05:07:22;;;;;;;5.80;3.20;;;16.20;99.90;;;;;;4900350;29;20189;-63
2022/10/05 05:10:07;;;;;;;6.13;2.85;;;16.20;99.90;;;;;;4899829;29;20198;-63
2022/10/05 05:13:09;;;;;;;5.85;3.08;;;16.20;99.90;;;;;;4895031;29;20176;-66
2022/10/05 05:16:01;;;;;;;7.05;3.70;;;16.20;99.90;;;;;;4873871;29;20196;-63
2022/10/05 05:18:49;;;;;;;7.47;3.10;;;16.20;99.90;;;;;;4880439;29;20213;-62
2022/10/05 05:21:43;;;;;;;6.97;3.42;;;16.20;99.90;;;;;;4898384;29;20185;-65
2022/10/05 05:24:37;;;;;;;7.20;2.92;;;16.20;99.90;;;;;;4880036;29;20193;-63
2022/10/05 05:27:26;;;;;;;4.65;2.80;;;16.10;99.90;;;;;;4895924;29;20195;-62
2022/10/05 05:30:05;;;;;;;3.65;2.50;;;16.10;99.90;;;;;;4900807;29;20177;-62
2022/10/05 05:32:56;;;;;;;6.43;2.80;;;16.10;99.90;;;;;;4898391;29;20180;-63
2022/10/05 05:35:43;;;;;;;5.43;3.00;;;16.10;99.90;;;;;;4899380;29;20597;-63
2022/10/05 05:38:29;;;;;;;7.30;2.50;;;16.10;99.90;;;;;;4885024;29;20307;-61
2022/10/05 05:41:13;;;;;;;3.42;2.90;;;16.10;99.90;;;;;;4893037;29;20256;-60
2022/10/05 05:44:20;;;;;;;6.88;2.97;;;16.10;99.90;;;;;;4898434;29;20315;-63
2022/10/05 05:47:08;;;;;;;5.95;2.60;;;16.10;99.90;;;;;;4899211;29;20188;-62
2022/10/05 05:50:07;;;;;;;6.55;2.35;;;16.00;99.90;;;;;;4897454;29;20575;-61
2022/10/05 05:52:39;;;;;;;5.72;2.40;;;16.10;99.90;;;;;;4898784;29;20187;-61
2022/10/05 05:55:21;;;;;;;3.40;2.00;;;16.10;99.90;;;;;;4897368;29;20191;-61
2022/10/05 05:57:59;;;;;;;3.20;2.00;;;16.10;99.90;;;;;;4899784;29;20645;-61
2022/10/05 06:00:36;;;;;;;4.10;2.00;;;16.10;99.90;;;;;;4895285;29;20236;-60
2022/10/05 06:03:09;;;;;;;3.58;2.20;;;16.10;99.90;;;;;;4885160;29;20633;-61
2022/10/05 06:05:48;;;;;;;2.67;2.00;;;16.10;99.90;;;;;;4895944;29;20272;-60
2022/10/05 06:08:21;;;;;;;2.78;2.00;;;16.10;99.90;;;;;;4898067;29;20192;-62
2022/10/05 06:10:56;;;;;;;2.83;2.22;;;16.10;99.90;;;;;;4900427;29;20199;-62
2022/10/05 06:13:33;;;;;;;2.92;1.90;;;16.10;99.90;;;;;;4885658;29;20657;-62
2022/10/05 06:16:22;;;;;;;5.35;2.00;;;16.10;99.90;;;;;;4896389;29;20664;-61
2022/10/05 06:18:57;;;;;;;7.30;2.28;;;16.10;99.90;;;;;;4887132;29;20211;-65
2022/10/05 06:21:53;;;;;;;4.03;1.88;;;16.10;99.90;;;;;;4898221;29;20195;-60
2022/10/05 06:24:45;;;;;;;5.60;1.98;;;16.10;99.90;;;;;;4898251;29;20192;-56
2022/10/05 06:27:35;;;;;;;4.57;2.13;;;16.10;99.90;;;;;;4858728;29;20200;-64
2022/10/05 06:30:16;;;;;;;3.78;2.13;;;16.10;99.90;;;;;;4892792;29;20197;-58
2022/10/05 06:32:49;;;;;;;4.55;2.10;;;16.10;99.90;;;;;;4880356;29;20191;-58
2022/10/05 06:35:21;;;;;;;6.13;2.10;;;16.10;99.90;;;;;;4894821;29;20244;-59
2022/10/05 06:38:06;;;;;;;5.05;1.95;;;16.10;99.90;;;;;;4887421;29;20216;-61
2022/10/05 06:40:37;;;;;;;6.38;1.95;;;16.10;99.90;;;;;;4895813;29;20185;-61
2022/10/05 06:43:31;;;;;;;3.05;1.70;;;16.10;99.90;;;;;;4879963;29;20266;-61
2022/10/05 06:47:06;;;;;;;3.60;2.05;;;16.10;99.90;;;;;;4860247;29;20204;-62
2022/10/05 06:50:08;;;;;;;4.78;1.80;;;16.10;99.90;;;;;;4870753;29;20208;-62
2022/10/05 06:53:12;;;;;;;3.03;1.80;;;16.10;99.90;;;;;;4890568;29;20188;-61
2022/10/05 06:55:54;;;;;;;2.38;1.60;;;16.20;99.90;;;;;;4896693;29;20553;-62
2022/10/05 06:58:38;;;;;;;2.60;1.45;;;16.20;99.90;;;;;;4893618;29;20231;-62
2022/10/05 07:01:19;;;;;;;3.42;1.70;;;16.20;99.90;;;;;;4903190;29;20192;-62
2022/10/05 07:04:12;;;;;;;3.83;1.67;;;16.20;99.90;;;;;;4895024;29;20272;-61
2022/10/05 07:06:38;;;;;;;9.52;1.80;;;16.20;99.90;;;;;;4897638;29;20200;-60
2022/10/05 07:09:21;;;;;;;3.22;1.60;;;16.20;99.90;;;;;;4894274;29;20271;-64
2022/10/05 07:12:12;;;;;;;3.90;1.80;;;16.30;99.90;;;;;;4897714;29;20185;-64
2022/10/05 07:15:04;;;;;;;2.78;1.80;;;16.30;99.90;;;;;;4886893;29;20279;-65
2022/10/05 07:18:02;;;;;;;3.85;1.95;;;16.30;99.90;;;;;;4881437;29;20620;-65
2022/10/05 07:20:41;;;;;;;3.83;2.20;;;16.30;99.90;;;;;;4878807;29;20692;-64
2022/10/05 07:23:27;;;;;;;8.00;2.20;;;16.30;99.90;;;;;;4894154;29;20192;-64
2022/10/05 07:26:04;;;;;;;2.55;2.03;;;16.30;99.90;;;;;;4896525;29;20577;-64
2022/10/05 07:28:36;;;;;;;4.10;2.35;;;16.30;99.90;;;;;;4895915;29;20224;-64
2022/10/05 07:31:27;;;;;;;8.10;2.42;;;16.30;99.90;;;;;;4877797;29;20914;-64
2022/10/05 07:34:32;;;;;;;7.72;2.47;;;16.40;99.90;;;;;;4881387;29;20230;-66
2022/10/05 07:40:09;;;;;;;7.13;2.30;;;16.40;99.90;;;;;;4890242;29;20188;-65
2022/10/05 07:42:49;;;;;;;5.63;2.50;;;16.40;99.90;;;;;;4888656;29;20188;-65
2022/10/05 07:45:24;;;;;;;3.05;2.13;;;16.40;99.90;;;;;;4890280;29;20196;-65
2022/10/05 07:47:58;;;;;;;10.85;2.95;;;16.50;99.90;;;;;;4879857;29;20196;-65
2022/10/05 07:50:42;;;;;;;4.22;2.22;;;16.50;99.90;;;;;;4895378;29;20185;-66
2022/10/05 07:53:23;;;;;;;3.60;2.65;;;16.50;99.90;;;;;;4881528;29;20268;-65
2022/10/05 07:55:56;;;;;;;4.93;2.80;;;16.60;99.90;;;;;;4877144;29;20240;-66
2022/10/05 07:58:50;;;;;;;4.93;2.45;;;16.60;99.90;;;;;;4897910;29;20209;-66
2022/10/05 08:01:28;;;;;;;4.80;2.10;;;16.60;99.90;;;;;;4890785;29;20221;-66
2022/10/05 08:04:20;;;;;;;4.18;2.50;;;16.60;99.90;;;;;;4883607;29;20666;-65
2022/10/05 08:06:58;;;;;;;8.65;2.47;;;16.70;99.90;;;;;;4886990;29;20192;-66
2022/10/05 08:09:27;;;;;;;4.18;2.53;;;16.70;99.90;;;;;;4896739;29;20239;-66
2022/10/05 08:11:55;;;;;;;4.22;2.40;;;16.70;99.90;;;;;;4892828;29;20185;-66
2022/10/05 08:14:55;;;;;;;4.57;2.53;;;16.70;99.90;;;;;;4881130;29;20598;-65
2022/10/05 08:17:55;;;;;;;3.78;2.35;;;16.70;99.90;;;;;;4888597;29;20665;-66
2022/10/05 08:20:52;;;;;;;5.43;2.10;;;16.70;99.90;;;;;;4897892;29;20657;-66
2022/10/05 08:23:39;;;;;;;5.57;2.38;;;16.80;99.90;;;;;;4873844;29;20197;-64
2022/10/05 08:26:17;;;;;;;5.43;2.92;;;16.80;99.90;;;;;;4881773;29;20180;-64
2022/10/05 08:29:11;;;;;;;3.00;2.45;;;16.80;99.90;;;;;;4889786;29;20216;-64
2022/10/05 08:31:39;;;;;;;6.32;2.50;;;16.80;99.90;;;;;;4884804;29;20283;-63
2022/10/05 08:34:27;;;;;;;7.35;2.58;;;16.80;99.90;;;;;;4898172;29;20181;-64
2022/10/05 08:37:18;;;;;;;8.73;2.42;;;16.80;99.90;;;;;;4888413;29;20235;-63
2022/10/05 08:40:20;;;;;;;5.18;2.47;;;16.80;99.90;;;;;;4894592;29;20220;-64
2022/10/05 08:42:54;;;;;;;4.93;2.40;;;16.80;99.90;;;;;;4823318;29;20405;-64
2022/10/05 08:45:38;;;;;;;5.28;2.30;;;16.80;99.90;;;;;;4895948;29;20196;-64
2022/10/05 08:48:17;;;;;;;7.55;3.30;;;16.80;99.90;;;;;;4894700;29;20327;-64
2022/10/05 08:50:54;;;;;;;5.93;2.45;;;16.90;99.90;;;;;;4896138;29;20165;-64
2022/10/05 08:53:50;;;;;;;4.72;2.50;;;16.90;99.90;;;;;;4877637;29;20225;-64
2022/10/05 08:56:19;;;;;;;3.45;2.40;;;16.90;99.90;;;;;;4882909;29;20196;-64
2022/10/05 08:58:48;;;;;;;7.53;2.42;;;16.90;99.90;;;;;;4882235;29;20189;-64
2022/10/05 09:01:32;;;;;;;6.10;2.40;;;16.90;99.90;;;;;;4891221;29;20240;-65
2022/10/05 09:04:16;;;;;;;6.03;2.28;;;16.90;99.90;;;;;;4887719;29;20188;-64
2022/10/05 09:07:11;;;;;;;5.55;2.80;;;17.00;99.90;;;;;;4891479;29;20638;-64
2022/10/05 09:09:56;;;;;;;6.50;2.50;;;17.10;99.90;;;;;;4885920;29;20189;-64
2022/10/05 09:12:49;;;;;;;5.10;2.70;;;17.00;99.90;;;;;;4892535;29;20525;-65
2022/10/05 09:15:46;;;;;;;6.38;2.60;;;17.00;99.90;;;;;;4880538;29;20200;-64
2022/10/05 09:18:26;;;;;;;7.47;2.83;;;17.00;99.90;;;;;;4882269;29;20216;-64
2022/10/05 09:20:56;;;;;;;4.07;2.40;;;17.00;99.90;;;;;;4879696;29;20188;-64
2022/10/05 09:23:41;;;;;;;5.22;2.63;;;17.00;99.90;;;;;;4897949;29;20177;-64
2022/10/05 09:26:45;;;;;;;4.75;2.60;;;17.00;99.90;;;;;;4893516;29;20185;-64
2022/10/05 09:29:25;;;;;;;8.63;2.53;;;17.00;99.90;;;;;;4896595;29;20200;-64
2022/10/05 09:32:12;;;;;;;7.22;3.00;;;17.00;99.90;;;;;;4897848;29;20240;-64
2022/10/05 09:34:56;;;;;;;6.10;2.53;;;17.10;99.90;;;;;;4899625;29;20705;-64
2022/10/05 09:37:41;;;;;;;7.85;2.60;;;17.10;99.90;;;;;;4889557;29;20212;-65
2022/10/05 09:40:47;;;;;;;5.57;2.20;;;17.10;99.90;;;;;;4884814;29;20180;-64
2022/10/05 09:44:02;;;;;;;4.32;2.10;;;17.10;99.90;;;;;;4881237;29;20232;-65
2022/10/05 09:46:46;;;;;;;3.72;2.20;;;17.10;99.90;;;;;;4893540;29;20196;-64
2022/10/05 09:49:36;;;;;;;5.20;2.03;;;17.10;99.90;;;;;;4890280;29;20180;-64
2022/10/05 09:52:27;;;;;;;3.10;1.75;;;17.20;99.90;;;;;;4898327;29;20185;-65
2022/10/05 09:55:15;;;;;;;11.38;1.83;;;17.20;99.90;;;;;;4899581;29;20214;-65
2022/10/05 09:58:05;;;;;;;6.97;2.38;;;17.20;99.90;;;;;;4891869;29;20287;-64
2022/10/05 10:00:37;;;;;;;5.70;1.85;;;17.20;99.90;;;;;;4892702;29;20203;-65
2022/10/05 10:03:41;;;;;;;4.03;1.73;;;17.30;99.90;;;;;;4895734;29;20184;-64
2022/10/05 10:06:40;;;;;;;4.78;2.30;;;17.30;99.90;;;;;;4894156;29;20689;-65
2022/10/05 10:09:17;;;;;;;5.10;1.80;;;17.30;99.90;;;;;;4885184;29;20311;-64
2022/10/05 10:12:13;;;;;;;5.65;1.83;;;17.30;99.90;;;;;;4887771;29;20239;-64
2022/10/05 10:15:09;;;;;;;4.55;1.55;;;17.20;99.90;;;;;;4899822;29;20189;-64
2022/10/05 10:18:03;;;;;;;3.03;1.52;;;17.20;99.90;;;;;;4890605;29;20254;-64
2022/10/05 10:20:53;;;;;;;4.50;1.90;;;17.20;99.90;;;;;;4880155;29;20535;-64
2022/10/05 10:23:43;;;;;;;4.22;1.48;;;17.20;99.90;;;;;;4881383;29;20189;-64
2022/10/05 10:26:31;;;;;;;7.03;1.50;;;17.20;99.90;;;;;;4881377;29;20548;-64
2022/10/05 10:29:08;;;;;;;3.92;1.60;;;17.20;99.90;;;;;;4885617;29;20200;-64
2022/10/05 10:31:43;;;;;;;3.45;1.23;;;17.20;99.90;;;;;;4897045;29;20284;-65
2022/10/05 10:34:42;;;;;;;3.67;1.60;;;17.10;99.90;;;;;;4899685;29;20169;-63
2022/10/05 10:37:46;;;;;;;5.32;1.48;;;17.10;99.90;;;;;;4891049;29;20212;-64
2022/10/05 10:40:12;;;;;;;3.33;1.30;;;17.10;99.90;;;;;;4889864;29;20279;-65
2022/10/05 10:42:48;;;;;;;12.23;1.50;;;17.10;99.90;;;;;;4893107;29;20267;-63
2022/10/05 10:45:38;;;;;;;2.00;1.08;;;17.10;99.90;;;;;;4887315;29;20196;-64
2022/10/05 10:48:09;;;;;;;2.53;1.40;;;17.10;99.90;;;;;;4893139;29;20235;-63
2022/10/05 10:50:44;;;;;;;8.13;1.30;;;17.10;99.90;;;;;;4886574;29;20581;-62
2022/10/05 10:53:09;;;;;;;5.82;1.45;;;17.10;99.90;;;;;;4892827;29;20186;-63
2022/10/05 10:56:13;;;;;;;5.30;1.60;;;17.10;99.90;;;;;;4898048;29;20177;-65
2022/10/05 10:59:19;;;;;;;6.72;1.90;;;17.10;99.90;;;;;;4887226;29;20232;-66
2022/10/05 11:02:20;;;;;;;6.63;1.80;;;17.10;99.90;;;;;;4840133;29;20263;-65
2022/10/05 11:05:05;;;;;;;3.63;1.63;;;17.10;99.90;;;;;;4885033;29;20244;-65
2022/10/05 11:07:55;;;;;;;3.08;1.60;;;17.20;99.90;;;;;;4894207;29;20180;-65
2022/10/05 11:10:33;;;;;;;2.53;1.50;;;17.10;99.90;;;;;;4898458;29;20180;-64
2022/10/05 11:13:27;;;;;;;2.90;1.63;;;17.10;99.90;;;;;;4892292;29;20191;-64
2022/10/05 11:16:30;;;;;;;3.95;1.90;;;17.10;99.90;;;;;;4884058;29;21318;-65
2022/10/05 11:19:22;;;;;;;5.78;1.77;;;17.10;99.90;;;;;;4898421;29;20656;-66
2022/10/05 11:22:16;;;;;;;3.53;1.75;;;17.10;99.90;;;;;;4889069;29;20307;-63
2022/10/05 11:24:51;;;;;;;4.07;1.40;;;17.10;99.90;;;;;;4882418;29;20188;-66
2022/10/05 11:27:39;;;;;;;3.50;1.70;;;17.10;99.90;;;;;;4894821;29;20664;-65
2022/10/05 11:30:34;;;;;;;5.85;1.90;;;17.10;99.90;;;;;;4897550;29;20267;-65
2022/10/05 11:33:36;;;;;;;5.65;1.85;;;17.10;99.90;;;;;;4883420;29;20180;-65
2022/10/05 11:36:30;;;;;;;5.65;1.80;;;17.10;99.90;;;;;;4882502;29;21718;-65
2022/10/05 11:39:17;;;;;;;4.95;2.00;;;17.20;99.90;;;;;;4881628;29;20193;-67
2022/10/05 11:41:52;;;;;;;4.97;2.17;;;17.20;99.90;;;;;;4896500;29;20637;-65
2022/10/05 11:44:40;;;;;;;6.10;2.45;;;17.20;99.90;;;;;;4897497;29;20223;-66
2022/10/05 11:47:11;;;;;;;11.25;2.40;;;17.20;99.90;;;;;;4893934;29;20236;-65
2022/10/05 11:49:54;;;;;;;5.72;2.30;;;17.30;99.90;;;;;;4898712;29;20185;-65
2022/10/05 11:52:34;;;;;;;4.13;2.00;;;17.30;99.90;;;;;;4896135;29;20193;-63
2022/10/05 11:55:23;;;;;;;4.72;2.00;;;17.30;99.90;;;;;;4895740;29;20189;-65
2022/10/05 11:58:00;;;;;;;6.93;2.10;;;17.30;99.90;;;;;;4882484;29;20223;-65
2022/10/05 12:00:39;;;;;;;5.40;2.08;;;17.30;99.90;;;;;;4895929;29;20196;-65
2022/10/05 12:03:17;;;;;;;6.32;2.30;;;17.40;99.90;;;;;;4893167;29;20185;-65
2022/10/05 12:06:10;;;;;;;4.03;1.95;;;17.40;99.90;;;;;;4861934;29;20193;-65
2022/10/05 12:09:15;;;;;;;3.78;2.00;;;17.50;99.90;;;;;;4882246;29;20754;-65
2022/10/05 12:12:10;;;;;;;5.13;2.50;;;17.50;99.90;;;;;;4880529;29;20279;-65
2022/10/05 12:14:58;;;;;;;5.63;2.13;;;17.60;99.90;;;;;;4896735;29;20215;-64
2022/10/05 12:17:47;;;;;;;4.38;2.05;;;17.60;99.90;;;;;;4885218;29;20208;-65
2022/10/05 12:20:36;;;;;;;7.07;2.25;;;17.70;99.90;;;;;;4883971;29;20240;-65
2022/10/05 12:23:37;;;;;;;4.70;2.17;;;17.70;99.90;;;;;;4874939;29;20209;-65
2022/10/05 12:26:09;;;;;;;11.98;2.42;;;17.80;99.90;;;;;;4861833;29;20221;-65
2022/10/05 12:28:42;;;;;;;5.43;2.38;;;17.80;99.90;;;;;;4897314;29;20181;-65
2022/10/05 12:31:38;;;;;;;3.17;1.98;;;17.90;99.90;;;;;;4879016;29;20647;-65
2022/10/05 12:34:07;;;;;;;6.20;2.20;;;17.90;99.90;;;;;;4886745;29;20193;-65
2022/10/05 12:36:47;;;;;;;7.95;2.28;;;17.90;99.90;;;;;;4895544;29;20191;-64
2022/10/05 12:39:55;;;;;;;6.03;1.77;;;18.00;99.90;;;;;;4896354;29;20196;-64
2022/10/05 12:42:28;;;;;;;5.68;2.03;;;18.10;99.90;;;;;;4895568;29;20650;-62
2022/10/05 12:45:33;;;;;;;6.97;2.25;;;18.20;99.90;;;;;;4895625;29;20203;-65
2022/10/05 12:48:28;;;;;;;4.07;2.00;;;18.30;99.90;;;;;;4895365;29;20184;-65
2022/10/05 12:51:06;;;;;;;5.95;2.22;;;18.50;99.90;;;;;;4888830;29;20199;-64
2022/10/05 12:53:48;;;;;;;2.75;1.77;;;18.60;99.90;;;;;;4892458;29;20661;-65
2022/10/05 12:56:20;;;;;;;6.22;2.50;;;18.70;99.90;;;;;;4896430;29;20243;-65
2022/10/05 12:59:03;;;;;;;8.00;2.88;;;18.70;99.90;;;;;;4896305;29;20295;-66
2022/10/05 13:01:38;;;;;;;6.40;2.10;;;18.80;99.90;;;;;;4891598;29;20189;-65
2022/10/05 13:04:37;;;;;;;5.45;2.00;;;18.90;99.90;;;;;;4896151;29;20216;-65
2022/10/05 13:07:26;;;;;;;8.15;2.05;;;18.90;99.90;;;;;;4877633;29;20283;-60
2022/10/05 13:10:30;;;;;;;3.97;1.80;;;18.90;99.90;;;;;;4872171;29;20215;-65
2022/10/05 13:13:05;;;;;;;6.95;2.33;;;18.90;99.90;;;;;;4883737;29;20197;-65
2022/10/05 13:15:45;;;;;;;5.65;2.25;;;18.80;99.90;;;;;;4895307;29;20192;-65
2022/10/05 13:18:17;;;;;;;5.88;2.42;;;18.80;99.90;;;;;;4898574;29;20220;-65
2022/10/05 13:21:08;;;;;;;5.35;2.17;;;18.90;99.90;;;;;;4897549;29;20197;-66
2022/10/05 13:23:50;;;;;;;7.60;2.08;;;18.90;99.90;;;;;;4892224;29;20681;-66
2022/10/05 13:26:37;;;;;;;4.18;2.20;;;18.90;99.90;;;;;;4899453;29;20184;-66
2022/10/05 13:29:18;;;;;;;7.35;2.10;;;19.00;99.90;;;;;;4892247;29;20188;-65
2022/10/05 13:31:48;;;;;;;12.82;2.22;;;19.00;99.90;;;;;;4892297;29;20276;-66
2022/10/05 13:34:30;;;;;;;11.05;2.42;;;19.00;99.90;;;;;;4898259;29;20188;-66
2022/10/05 13:37:10;;;;;;;6.30;2.10;;;19.00;99.90;;;;;;4898652;29;20208;-66
2022/10/05 13:39:58;;;;;;;6.55;1.83;;;19.00;99.90;;;;;;4895670;29;20192;-64
2022/10/05 13:42:42;;;;;;;8.07;1.88;;;18.90;99.90;;;;;;4850797;29;20205;-67
2022/10/05 13:45:25;;;;;;;5.75;1.90;;;18.90;99.90;;;;;;4887684;29;20197;-64
2022/10/05 13:48:15;;;;;;;3.95;1.88;;;18.80;99.90;;;;;;4898662;29;20180;-66
2022/10/05 13:50:46;;;;;;;4.20;1.83;;;18.90;99.90;;;;;;4888794;29;20432;-65
2022/10/05 13:53:30;;;;;;;12.45;2.30;;;18.90;99.90;;;;;;4899274;29;20180;-67
2022/10/05 13:56:07;;;;;;;5.63;2.42;;;19.00;99.90;;;;;;4882043;29;20660;-66
2022/10/05 13:58:35;;;;;;;9.32;2.08;;;19.30;99.90;;;;;;4900548;29;20240;-66
2022/10/05 14:01:06;;;;;;;10.52;1.90;;;19.50;99.90;;;;;;4888482;29;20193;-65
2022/10/05 14:03:37;;;;;;;4.72;1.77;;;19.50;99.90;;;;;;4887808;29;20318;-64
2022/10/05 14:06:26;;;;;;;5.38;1.80;;;19.70;99.80;;;;;;4887353;29;20701;-65
2022/10/05 14:08:56;;;;;;;7.65;2.10;;;19.90;99.50;;;;;;4895750;29;20215;-64
2022/10/05 14:11:22;;;;;;;5.57;1.88;;;19.90;99.20;;;;;;4898735;29;20189;-64
2022/10/05 14:13:49;;;;;;;8.70;1.75;;;19.80;99.10;;;;;;4898560;29;20199;-64
2022/10/05 14:16:23;;;;;;;5.47;1.70;;;19.70;99.20;;;;;;4896529;29;20192;-64
2022/10/05 14:19:04;;;;;;;8.25;1.90;;;19.70;99.20;;;;;;4898621;29;20226;-64
2022/10/05 14:21:57;;;;;;;2.92;1.65;;;19.80;99.20;;;;;;4888822;29;20294;-64
2022/10/05 14:24:31;;;;;;;5.20;2.63;;;19.70;98.90;;;;;;4899804;29;20188;-64
2022/10/05 14:26:58;;;;;;;20.20;9.35;;;19.60;99.10;;;;;;4894503;29;20224;-64
2022/10/05 14:29:36;;;;;;;6.35;2.05;;;19.60;99.20;;;;;;4896904;29;20184;-64
2022/10/05 14:32:13;;;;;;;6.10;2.13;;;19.50;99.50;;;;;;4884590;29;20181;-63
2022/10/05 14:34:54;;;;;;;8.35;2.00;;;19.40;99.40;;;;;;4897614;29;20614;-63
2022/10/05 14:37:23;;;;;;;4.93;1.80;;;19.30;99.40;;;;;;4892921;29;20200;-63
2022/10/05 14:39:55;;;;;;;3.90;1.80;;;19.20;99.60;;;;;;4897854;29;20212;-64
2022/10/05 14:42:27;;;;;;;6.75;1.90;;;19.00;99.70;;;;;;4885959;29;20264;-59
2022/10/05 14:45:14;;;;;;;5.68;2.13;;;18.90;99.90;;;;;;4884723;29;20212;-63
2022/10/05 14:47:59;;;;;;;4.25;1.90;;;18.90;99.90;;;;;;4896595;29;20230;-63
2022/10/05 14:50:28;;;;;;;6.47;1.70;;;18.70;99.90;;;;;;4896867;29;20191;-63